Chart 1
 
(A maximum of 50 rows are displayed here. Use "Export Data" to see all rows in the date range.)
Date Collected Temp WindChill
(Celcius)
WindSpeed
(km/hr)
Gust
(km/hr)
Wind Direction
(degrees)
2026-05-03 04:00 9.4 7.5 4 10 42
2026-05-03 03:00 9.2 8.8 3 6 41
2026-05-03 02:00 9.7 9.7 2 5 47
2026-05-03 01:00 10.9 10.9 2 5 56
2026-05-03 00:00 11.8 11.8 2 5 56
2026-05-02 23:00 12.1 12.1 2 5 68
2026-05-02 22:00 12.2 12.1 2 5 69
2026-05-02 21:00 11.8 11.9 2 5 51
2026-05-02 20:00 11.7 11.7 2 4 37
2026-05-02 19:00 12.7 12.8 0 1 0
2026-05-02 18:00 14.2 14.3 0 1 293
2026-05-02 17:00 16.1 16.2 1 1 270
2026-05-02 16:00 16.9 17.1 2 5 243
2026-05-02 15:00 17.3 16.9 3 7 248
2026-05-02 14:00 17.5 17.4 3 5 238
2026-05-02 13:00 17.3 16.9 3 7 252
2026-05-02 12:00 18.2 17.8 2 5 208
2026-05-02 11:00 15.5 15.5 2 5 19
2026-05-02 10:00 13.2 12.2 4 6 52
2026-05-02 09:00 8.4 7.7 3 6 46
2026-05-02 08:00 7.3 6.8 3 6 60
2026-05-02 07:00 7.3 6.9 2 5 55
2026-05-02 06:00 7.0 6.6 3 6 51
2026-05-02 05:00 7.2 6.1 4 8 42
2026-05-02 04:00 7.4 7.0 3 6 56
2026-05-02 03:00 7.7 6.5 4 7 63
2026-05-02 02:00 7.8 7.7 2 5 69
2026-05-02 01:00 7.6 7.5 2 6 71
2026-05-02 00:00 7.2 7.3 1 2 28
2026-05-01 23:00 8.3 8.3 1 3 44
2026-05-01 22:00 9.9 10.0 1 2 1
2026-05-01 21:00 11.9 12.0 0 2 53
2026-05-01 20:00 12.9 12.8 2 5 117
2026-05-01 19:00 13.1 13.2 1 2 103
2026-05-01 18:00 14.5 14.5 1 3 109
2026-05-01 17:00 15.3 15.2 2 6 167
2026-05-01 16:00 16.0 15.6 3 6 155
2026-05-01 15:00 16.6 16.5 2 5 119
2026-05-01 14:00 16.4 15.8 2 11 70
2026-05-01 13:00 16.2 15.8 2 6 151
2026-05-01 12:00 15.3 14.6 3 8 132
2026-05-01 11:00 13.0 12.9 1 4 289
2026-05-01 10:00 11.1 10.9 1 2 40
2026-05-01 09:00 9.7 9.6 1 3 36
2026-05-01 08:00 7.9 7.8 2 5 53
2026-05-01 07:00 7.2 6.7 2 5 36
2026-05-01 06:00 5.9 5.9 1 4 26
2026-05-01 05:00 6.7 6.8 0 2 35
2026-05-01 04:00 7.6 7.6 1 4 38
2026-05-01 03:00 7.5 7.4 1 2 38